createdAt,value
2022-12-16T00:01:14.687Z,-2.95
2022-12-16T00:03:49.045Z,-2.95
2022-12-16T00:06:18.616Z,-2.97
2022-12-16T00:08:47.491Z,-2.97
2022-12-16T00:11:16.031Z,-2.92
2022-12-16T00:13:44.883Z,-2.86
2022-12-16T00:16:18.378Z,-2.89
2022-12-16T00:18:47.161Z,-2.90
2022-12-16T00:21:18.614Z,-2.93
2022-12-16T00:23:47.249Z,-2.91
2022-12-16T00:26:16.315Z,-2.86
2022-12-16T00:28:44.631Z,-2.93
2022-12-16T00:31:14.879Z,-2.88
2022-12-16T00:33:43.634Z,-2.95
2022-12-16T00:36:12.152Z,-2.90
2022-12-16T00:38:40.865Z,-2.91
2022-12-16T00:41:10.702Z,-2.92
2022-12-16T00:43:39.057Z,-2.96
2022-12-16T00:46:07.522Z,-2.91
2022-12-16T00:48:37.352Z,-2.90
2022-12-16T00:51:06.229Z,-2.94
2022-12-16T00:53:35.883Z,-2.95
2022-12-16T00:56:07.209Z,-3.02
2022-12-16T00:58:35.999Z,-3.03
2022-12-16T01:01:06.203Z,-3.09
2022-12-16T01:03:37.027Z,-3.05
2022-12-16T01:06:10.865Z,-3.00
2022-12-16T01:08:39.597Z,-2.98
2022-12-16T01:11:07.950Z,-2.97
2022-12-16T01:13:37.216Z,-2.98
2022-12-16T01:16:06.845Z,-2.88
2022-12-16T01:18:37.165Z,-2.88
2022-12-16T01:21:07.407Z,-2.82
2022-12-16T01:23:36.935Z,-2.91
2022-12-16T01:26:06.108Z,-2.93
2022-12-16T01:28:34.759Z,-2.95
2022-12-16T01:31:03.438Z,-2.92
2022-12-16T01:33:34.227Z,-2.87
2022-12-16T01:36:09.045Z,-2.91
2022-12-16T01:38:37.979Z,-2.86
2022-12-16T01:41:07.245Z,-2.88
2022-12-16T01:43:39.420Z,-2.83
2022-12-16T01:46:16.009Z,-2.89
2022-12-16T01:48:49.729Z,-2.76
2022-12-16T01:51:29.633Z,-2.79
2022-12-16T01:54:05.832Z,-2.85
2022-12-16T01:56:37.861Z,-2.87
2022-12-16T01:59:08.356Z,-2.89
2022-12-16T02:01:36.955Z,-2.84
2022-12-16T02:04:05.696Z,-2.85
2022-12-16T02:06:35.603Z,-2.88
2022-12-16T02:09:11.292Z,-2.87
2022-12-16T02:12:05.625Z,-2.76
2022-12-16T02:15:05.550Z,-2.78
2022-12-16T02:17:45.428Z,-2.73
2022-12-16T02:20:48.482Z,-2.72
2022-12-16T02:23:48.815Z,-2.73
2022-12-16T02:27:18.755Z,-2.69
2022-12-16T02:30:10.099Z,-2.74
2022-12-16T02:32:55.781Z,-2.79
2022-12-16T02:35:36.446Z,-2.78
2022-12-16T02:38:22.517Z,-2.74
2022-12-16T02:41:02.984Z,-2.74
2022-12-16T02:43:55.983Z,-2.73
2022-12-16T02:46:30.123Z,-2.77
2022-12-16T02:49:08.466Z,-2.76
2022-12-16T02:51:39.464Z,-2.76
2022-12-16T02:54:11.006Z,-2.76
2022-12-16T02:57:01.081Z,-2.73
2022-12-16T02:59:43.584Z,-2.74
2022-12-16T03:02:22.829Z,-2.76
2022-12-16T03:04:59.223Z,-2.80
2022-12-16T03:07:34.234Z,-2.84
2022-12-16T03:10:07.767Z,-2.88
2022-12-16T03:12:42.001Z,-2.83
2022-12-16T03:15:13.873Z,-2.84
2022-12-16T03:17:43.691Z,-2.84
2022-12-16T03:20:20.480Z,-2.80
2022-12-16T03:22:53.181Z,-2.82
2022-12-16T03:25:24.644Z,-2.76
2022-12-16T03:28:05.127Z,-2.84
2022-12-16T03:30:40.420Z,-2.81
2022-12-16T03:33:19.901Z,-2.80
2022-12-16T03:35:55.289Z,-2.75
2022-12-16T03:38:26.135Z,-2.78
2022-12-16T03:40:57.290Z,-2.78
2022-12-16T03:43:26.599Z,-2.79
2022-12-16T03:46:02.146Z,-2.79
2022-12-16T03:48:31.055Z,-2.78
2022-12-16T03:51:01.121Z,-2.82
2022-12-16T03:53:30.298Z,-2.88
2022-12-16T03:55:58.921Z,-2.84
2022-12-16T03:58:27.384Z,-2.78
2022-12-16T04:00:56.302Z,-2.77
2022-12-16T04:03:26.661Z,-2.74
2022-12-16T04:05:54.995Z,-2.72
2022-12-16T04:08:24.651Z,-2.82
2022-12-16T04:11:10.856Z,-2.86
2022-12-16T04:13:57.336Z,-2.82
2022-12-16T04:16:46.297Z,-2.80
2022-12-16T04:19:41.519Z,-2.85
2022-12-16T04:22:35.646Z,-2.85
2022-12-16T04:25:10.784Z,-2.79
2022-12-16T04:27:39.425Z,-2.87
2022-12-16T04:30:21.863Z,-2.90
2022-12-16T04:33:14.220Z,-2.87
2022-12-16T04:36:00.304Z,-2.95
2022-12-16T04:38:46.340Z,-2.97
2022-12-16T04:41:33.688Z,-2.97
2022-12-16T04:44:19.926Z,-2.95
2022-12-16T04:47:06.222Z,-3.00
2022-12-16T04:49:52.381Z,-2.98
2022-12-16T04:52:38.428Z,-3.00
2022-12-16T04:55:26.335Z,-3.01
2022-12-16T04:58:15.440Z,-3.03
2022-12-16T05:01:02.955Z,-2.99
2022-12-16T05:03:49.232Z,-3.01
2022-12-16T05:06:35.838Z,-2.91
2022-12-16T05:09:22.224Z,-2.91
2022-12-16T05:12:09.304Z,-2.94
2022-12-16T05:14:56.624Z,-3.02
2022-12-16T05:17:42.631Z,-3.03
2022-12-16T05:20:29.648Z,-3.04
2022-12-16T05:23:15.871Z,-3.05
2022-12-16T05:26:01.920Z,-3.03
2022-12-16T05:28:48.723Z,-2.98
2022-12-16T05:31:36.233Z,-3.05
2022-12-16T05:34:22.298Z,-3.01
2022-12-16T05:37:08.263Z,-3.03
2022-12-16T05:39:54.255Z,-3.04
2022-12-16T05:42:40.352Z,-3.02
2022-12-16T05:45:26.890Z,-2.95
2022-12-16T05:48:13.727Z,-2.91
2022-12-16T05:50:59.894Z,-2.93
2022-12-16T05:53:45.776Z,-2.85
2022-12-16T05:56:31.783Z,-2.84
2022-12-16T05:59:18.074Z,-2.89
2022-12-16T06:02:04.230Z,-2.93
2022-12-16T06:04:51.634Z,-2.91
2022-12-16T06:07:37.540Z,-2.92
2022-12-16T06:10:24.033Z,-2.99
2022-12-16T06:13:10.059Z,-2.95
2022-12-16T06:15:56.088Z,-2.96
2022-12-16T06:18:50.476Z,-3.06
2022-12-16T06:21:52.540Z,-3.10
2022-12-16T06:24:38.428Z,-2.97
2022-12-16T06:27:23.987Z,-3.09
2022-12-16T06:30:11.965Z,-3.19
2022-12-16T06:32:57.710Z,-3.19
2022-12-16T06:35:55.248Z,-3.18
2022-12-16T06:38:42.286Z,-3.17
2022-12-16T06:41:36.414Z,-3.16
2022-12-16T06:44:22.703Z,-3.23
2022-12-16T06:47:09.116Z,-3.26
2022-12-16T06:49:54.871Z,-3.29
2022-12-16T06:52:40.734Z,-3.26
2022-12-16T06:55:27.301Z,-3.27
2022-12-16T06:58:16.888Z,-3.09
2022-12-16T07:01:03.678Z,-3.14
2022-12-16T07:03:50.061Z,-3.10
2022-12-16T07:06:36.031Z,-3.03
2022-12-16T07:09:22.461Z,-3.06
2022-12-16T07:12:09.982Z,-3.00
2022-12-16T07:15:01.150Z,-3.00
2022-12-16T07:17:47.382Z,-3.10
2022-12-16T07:20:33.154Z,-3.12
2022-12-16T07:23:38.095Z,-3.04
2022-12-16T07:26:24.390Z,-2.99
2022-12-16T07:29:14.574Z,-3.03
2022-12-16T07:32:00.312Z,-3.03
2022-12-16T07:34:50.090Z,-3.07
2022-12-16T07:37:36.555Z,-3.06
2022-12-16T07:40:23.656Z,-2.99
2022-12-16T07:43:09.529Z,-2.93
2022-12-16T07:45:56.529Z,-2.93
2022-12-16T07:48:43.535Z,-2.93
2022-12-16T07:51:31.615Z,-2.99
2022-12-16T07:54:17.305Z,-2.94
2022-12-16T07:57:03.347Z,-2.86
2022-12-16T07:59:49.233Z,-2.80
2022-12-16T08:02:36.968Z,-2.90
2022-12-16T08:05:23.603Z,-2.89
2022-12-16T08:08:09.524Z,-2.86
2022-12-16T08:10:55.480Z,-2.85
2022-12-16T08:13:41.426Z,-2.85
2022-12-16T08:16:27.422Z,-2.67
2022-12-16T08:19:14.797Z,-2.70
2022-12-16T08:22:00.839Z,-2.63
2022-12-16T08:24:51.532Z,-2.61
2022-12-16T08:27:39.133Z,-2.41
2022-12-16T08:30:26.888Z,-2.19
2022-12-16T08:33:18.870Z,-2.24
2022-12-16T08:36:07.224Z,-2.24
2022-12-16T08:38:55.974Z,-2.07
2022-12-16T08:41:42.453Z,-2.11
2022-12-16T08:44:28.525Z,-2.13
2022-12-16T08:47:14.814Z,-2.01
2022-12-16T08:50:02.385Z,-1.91
2022-12-16T08:52:50.137Z,-1.84
2022-12-16T08:55:36.511Z,-1.77
2022-12-16T08:58:22.524Z,-1.61
2022-12-16T09:01:08.568Z,-1.53
2022-12-16T09:03:56.263Z,-1.50
2022-12-16T09:06:42.257Z,-1.67
2022-12-16T09:09:29.934Z,-1.42
2022-12-16T09:12:15.854Z,-1.33
2022-12-16T09:15:01.831Z,-1.48
2022-12-16T09:17:48.107Z,-1.48
2022-12-16T09:20:42.899Z,-1.45
2022-12-16T09:23:29.209Z,-1.49
2022-12-16T09:26:16.526Z,-1.36
2022-12-16T09:29:02.631Z,-1.43
2022-12-16T09:31:48.773Z,-1.59
2022-12-16T09:34:34.751Z,-1.69
2022-12-16T09:37:20.571Z,-1.54
2022-12-16T09:40:06.910Z,-1.42
2022-12-16T09:43:07.971Z,-1.50
2022-12-16T09:46:04.485Z,-1.41
2022-12-16T09:49:07.314Z,-1.44
2022-12-16T09:51:55.824Z,-1.55
2022-12-16T09:54:47.725Z,-1.45
2022-12-16T09:57:34.831Z,-1.30
2022-12-16T10:00:27.034Z,-1.22
2022-12-16T10:03:16.363Z,-1.23
2022-12-16T10:06:11.741Z,-1.25
2022-12-16T10:09:10.027Z,-1.47
2022-12-16T10:12:10.005Z,-1.36
2022-12-16T10:15:09.783Z,-1.31
2022-12-16T10:18:04.013Z,-1.30
2022-12-16T10:21:01.532Z,-1.14
2022-12-16T10:23:54.458Z,-1.22
2022-12-16T10:27:03.885Z,-1.12
2022-12-16T10:29:57.877Z,-1.18
2022-12-16T10:32:51.900Z,-1.13
2022-12-16T10:35:46.562Z,-1.15
2022-12-16T10:38:41.504Z,-1.12
2022-12-16T10:41:30.473Z,-1.04
2022-12-16T10:44:18.978Z,-1.09
2022-12-16T10:47:05.013Z,-1.23
2022-12-16T10:49:55.071Z,-1.23
2022-12-16T10:52:42.559Z,-1.12
2022-12-16T10:55:47.252Z,-1.06
2022-12-16T10:58:48.365Z,-1.01
2022-12-16T11:01:42.012Z,-1.26
2022-12-16T11:04:55.826Z,-1.33
2022-12-16T11:07:52.099Z,-1.33
2022-12-16T11:10:52.314Z,-1.24
2022-12-16T11:13:43.524Z,-1.27
2022-12-16T11:16:41.771Z,-1.22
2022-12-16T11:19:39.969Z,-1.15
2022-12-16T11:22:33.028Z,-1.36
2022-12-16T11:25:34.662Z,-1.50
2022-12-16T11:28:30.065Z,-1.33
2022-12-16T11:31:21.067Z,-1.07
2022-12-16T11:34:09.183Z,-1.11
2022-12-16T11:36:57.814Z,-1.28
2022-12-16T11:39:47.639Z,-1.37
2022-12-16T11:42:41.715Z,-1.39
2022-12-16T11:45:35.999Z,-1.27
2022-12-16T11:48:35.806Z,-1.27
2022-12-16T11:51:24.157Z,-1.24
2022-12-16T11:54:17.759Z,-1.35
2022-12-16T11:57:05.070Z,-1.28
2022-12-16T12:00:00.639Z,-1.28
2022-12-16T12:02:56.213Z,-1.25
2022-12-16T12:05:51.559Z,-1.25
2022-12-16T12:08:49.613Z,-1.55
2022-12-16T12:11:41.744Z,-1.51
2022-12-16T12:14:44.130Z,-1.37
2022-12-16T12:17:49.544Z,-1.28
2022-12-16T12:21:02.476Z,-1.44
2022-12-16T12:24:05.393Z,-1.63
2022-12-16T12:26:53.989Z,-1.44
2022-12-16T12:29:57.705Z,-1.54
2022-12-16T12:32:56.014Z,-1.45
2022-12-16T12:36:08.214Z,-1.42
2022-12-16T12:39:10.792Z,-1.52
2022-12-16T12:42:16.918Z,-1.46
2022-12-16T12:45:18.300Z,-1.53
2022-12-16T12:48:16.092Z,-1.59
2022-12-16T12:51:15.570Z,-1.66
2022-12-16T12:54:13.328Z,-1.67
2022-12-16T12:57:07.716Z,-1.76
2022-12-16T13:00:09.305Z,-1.91
2022-12-16T13:03:21.200Z,-1.86
2022-12-16T13:06:08.899Z,-1.80
2022-12-16T13:09:15.746Z,-1.78
2022-12-16T13:12:47.239Z,-1.76
2022-12-16T13:15:54.146Z,-1.56
2022-12-16T13:18:48.889Z,-1.59
2022-12-16T13:22:06.043Z,-1.63
2022-12-16T13:24:58.695Z,-1.72
2022-12-16T13:27:48.136Z,-1.72
2022-12-16T13:30:42.707Z,-1.88
2022-12-16T13:33:48.683Z,-1.80
2022-12-16T13:36:37.530Z,-1.60
2022-12-16T13:39:43.914Z,-1.55
2022-12-16T13:43:08.895Z,-1.52
2022-12-16T13:45:58.068Z,-1.56
2022-12-16T13:49:01.146Z,-1.71
2022-12-16T13:52:19.361Z,-1.65
2022-12-16T13:55:24.797Z,-1.64
2022-12-16T13:58:16.301Z,-1.60
2022-12-16T14:01:08.941Z,-1.57
2022-12-16T14:04:04.190Z,-1.67
2022-12-16T14:06:54.008Z,-1.73
2022-12-16T14:09:57.126Z,-1.73
2022-12-16T14:13:04.711Z,-1.76
2022-12-16T14:16:04.431Z,-1.82
2022-12-16T14:19:06.857Z,-1.78
2022-12-16T14:22:03.975Z,-1.78
2022-12-16T14:24:50.499Z,-1.85
2022-12-16T14:27:40.628Z,-1.83
2022-12-16T14:30:37.962Z,-1.94
2022-12-16T14:33:47.553Z,-1.89
2022-12-16T14:36:47.569Z,-1.93
2022-12-16T14:39:40.333Z,-2.00
2022-12-16T14:42:38.334Z,-2.02
2022-12-16T14:45:40.242Z,-2.09
2022-12-16T14:48:45.996Z,-2.06
2022-12-16T14:51:48.251Z,-1.99
2022-12-16T14:54:41.627Z,-2.05
2022-12-16T14:57:34.871Z,-2.14
2022-12-16T15:00:31.616Z,-1.99
2022-12-16T15:03:26.316Z,-2.03
2022-12-16T15:06:19.112Z,-2.03
2022-12-16T15:09:14.818Z,-1.99
2022-12-16T15:12:03.354Z,-2.00
2022-12-16T15:14:53.498Z,-1.98
2022-12-16T15:17:41.781Z,-2.04
2022-12-16T15:20:39.360Z,-2.13
2022-12-16T15:23:36.682Z,-2.14
2022-12-16T15:26:25.368Z,-2.12
2022-12-16T15:29:11.891Z,-2.07
2022-12-16T15:32:03.283Z,-2.03
2022-12-16T15:35:07.100Z,-2.14
2022-12-16T15:38:03.610Z,-2.12
2022-12-16T15:40:54.348Z,-2.09
2022-12-16T15:43:48.800Z,-2.21
2022-12-16T15:46:39.957Z,-2.26
2022-12-16T15:49:43.127Z,-2.32
2022-12-16T15:52:53.441Z,-2.33
2022-12-16T15:55:49.695Z,-2.26
2022-12-16T15:58:43.320Z,-2.43
2022-12-16T16:01:34.087Z,-2.42
2022-12-16T16:04:20.804Z,-2.32
2022-12-16T16:07:08.864Z,-2.40
2022-12-16T16:10:01.016Z,-2.35
2022-12-16T16:12:46.944Z,-2.42
2022-12-16T16:15:33.866Z,-2.42
2022-12-16T16:18:24.273Z,-2.44
2022-12-16T16:21:11.223Z,-2.50
2022-12-16T16:23:57.090Z,-2.55
2022-12-16T16:26:46.988Z,-2.51
2022-12-16T16:29:33.701Z,-2.62
2022-12-16T16:32:21.031Z,-2.72
2022-12-16T16:35:08.314Z,-2.62
2022-12-16T16:37:54.642Z,-2.61
2022-12-16T16:40:50.083Z,-2.61
2022-12-16T16:43:36.889Z,-2.67
2022-12-16T16:46:42.898Z,-2.56
2022-12-16T16:49:36.071Z,-2.66
2022-12-16T16:52:23.443Z,-2.67
2022-12-16T16:55:09.438Z,-2.62
2022-12-16T16:57:57.103Z,-2.60
2022-12-16T17:00:43.595Z,-2.67
2022-12-16T17:03:29.588Z,-2.79
2022-12-16T17:06:15.846Z,-2.75
2022-12-16T17:09:02.953Z,-2.80
2022-12-16T17:11:50.468Z,-2.81
2022-12-16T17:14:39.259Z,-2.74
2022-12-16T17:17:25.858Z,-2.87
2022-12-16T17:20:11.796Z,-3.01
2022-12-16T17:22:59.014Z,-2.92
2022-12-16T17:25:46.109Z,-3.00
2022-12-16T17:28:32.086Z,-2.90
2022-12-16T17:31:18.373Z,-2.88
2022-12-16T17:34:04.436Z,-2.97
2022-12-16T17:36:46.958Z,-2.99
2022-12-16T17:39:32.660Z,-3.00
2022-12-16T17:42:19.713Z,-3.14
2022-12-16T17:45:05.566Z,-3.11
2022-12-16T17:47:51.180Z,-3.06
2022-12-16T17:50:37.011Z,-3.08
2022-12-16T17:53:23.143Z,-2.98
2022-12-16T17:56:09.501Z,-2.93
2022-12-16T17:58:58.328Z,-3.00
2022-12-16T18:01:45.084Z,-3.11
2022-12-16T18:04:31.479Z,-3.16
2022-12-16T18:07:17.771Z,-3.27
2022-12-16T18:10:03.998Z,-3.32
2022-12-16T18:12:51.733Z,-3.25
2022-12-16T18:15:39.010Z,-3.23
2022-12-16T18:18:25.317Z,-3.20
2022-12-16T18:21:11.308Z,-3.24
2022-12-16T18:23:57.414Z,-3.18
2022-12-16T18:26:43.360Z,-3.24
2022-12-16T18:29:29.468Z,-3.26
2022-12-16T18:32:16.765Z,-3.27
2022-12-16T18:35:03.020Z,-3.23
2022-12-16T18:38:00.518Z,-3.26
2022-12-16T18:41:01.502Z,-3.25
2022-12-16T18:43:46.762Z,-3.29
2022-12-16T18:46:33.307Z,-3.33
2022-12-16T18:49:20.836Z,-3.45
2022-12-16T18:52:06.793Z,-3.43
2022-12-16T18:54:52.756Z,-3.42
2022-12-16T18:57:39.936Z,-3.51
2022-12-16T19:00:27.962Z,-3.39
2022-12-16T19:03:13.756Z,-3.50
2022-12-16T19:06:01.484Z,-3.57
2022-12-16T19:08:48.431Z,-3.54
2022-12-16T19:11:34.364Z,-3.59
2022-12-16T19:14:35.471Z,-3.53
2022-12-16T19:17:21.579Z,-3.53
2022-12-16T19:20:07.758Z,-3.46
2022-12-16T19:22:56.536Z,-3.54
2022-12-16T19:25:42.312Z,-3.60
2022-12-16T19:28:32.044Z,-3.61
2022-12-16T19:31:18.184Z,-3.70
2022-12-16T19:34:04.225Z,-3.75
2022-12-16T19:36:50.487Z,-3.59
2022-12-16T19:39:37.734Z,-3.60
2022-12-16T19:42:23.931Z,-3.56
2022-12-16T19:45:10.167Z,-3.55
2022-12-16T19:47:56.394Z,-3.44
2022-12-16T19:50:42.137Z,-3.55
2022-12-16T19:53:28.237Z,-3.59
2022-12-16T19:56:17.461Z,-3.51
2022-12-16T19:59:03.533Z,-3.40
2022-12-16T20:01:50.309Z,-3.52
2022-12-16T20:04:38.007Z,-3.54
2022-12-16T20:07:24.254Z,-3.61
2022-12-16T20:10:10.230Z,-3.59
2022-12-16T20:12:57.391Z,-3.60
2022-12-16T20:15:42.480Z,-3.50
2022-12-16T20:18:36.854Z,-3.55
2022-12-16T20:21:23.777Z,-3.59
2022-12-16T20:24:09.745Z,-3.66
2022-12-16T20:26:55.734Z,-3.65
2022-12-16T20:29:43.087Z,-3.67
2022-12-16T20:32:29.118Z,-3.76
2022-12-16T20:35:14.972Z,-3.67
2022-12-16T20:38:03.246Z,-3.76
2022-12-16T20:40:49.084Z,-3.61
2022-12-16T20:43:35.010Z,-3.62
2022-12-16T20:46:22.511Z,-3.64
2022-12-16T20:49:09.209Z,-3.60
2022-12-16T20:51:56.277Z,-3.56
2022-12-16T20:54:42.489Z,-3.52
2022-12-16T20:57:29.093Z,-3.47
2022-12-16T21:00:15.331Z,-3.59
2022-12-16T21:03:02.719Z,-3.61
2022-12-16T21:05:49.142Z,-3.53
2022-12-16T21:08:35.187Z,-3.57
2022-12-16T21:11:21.501Z,-3.43
2022-12-16T21:14:09.042Z,-3.55
2022-12-16T21:16:56.047Z,-3.60
2022-12-16T21:19:43.494Z,-3.61
2022-12-16T21:22:29.565Z,-3.56
2022-12-16T21:25:19.749Z,-3.59
2022-12-16T21:28:09.610Z,-3.67
2022-12-16T21:30:56.075Z,-3.66
2022-12-16T21:33:42.547Z,-3.79
2022-12-16T21:36:30.164Z,-3.69
2022-12-16T21:39:16.105Z,-3.71
2022-12-16T21:42:02.186Z,-3.65
2022-12-16T21:44:47.300Z,-3.67
2022-12-16T21:47:33.242Z,-3.74
2022-12-16T21:50:19.257Z,-3.70
2022-12-16T21:53:04.126Z,-3.71
2022-12-16T21:55:46.896Z,-3.74
2022-12-16T21:58:32.602Z,-3.71
2022-12-16T22:01:18.990Z,-3.60
2022-12-16T22:04:05.496Z,-3.65
2022-12-16T22:06:51.464Z,-3.70
2022-12-16T22:09:39.340Z,-3.63
2022-12-16T22:12:25.856Z,-3.69
2022-12-16T22:15:11.850Z,-3.65
2022-12-16T22:17:58.965Z,-3.80
2022-12-16T22:20:45.292Z,-3.81
2022-12-16T22:23:31.336Z,-3.78
2022-12-16T22:26:20.436Z,-3.88
2022-12-16T22:29:06.680Z,-4.01
2022-12-16T22:31:52.819Z,-3.92
2022-12-16T22:34:42.375Z,-3.91
2022-12-16T22:37:28.505Z,-3.92
2022-12-16T22:40:14.552Z,-3.99
2022-12-16T22:43:01.692Z,-3.88
2022-12-16T22:45:48.193Z,-3.99
2022-12-16T22:48:34.139Z,-4.03
2022-12-16T22:51:20.650Z,-4.00
2022-12-16T22:54:08.007Z,-4.08
2022-12-16T22:56:56.475Z,-4.09
2022-12-16T22:59:44.110Z,-4.11
2022-12-16T23:02:30.126Z,-4.06
2022-12-16T23:05:16.144Z,-4.23
2022-12-16T23:08:02.257Z,-4.19
2022-12-16T23:10:48.258Z,-4.09
2022-12-16T23:13:34.157Z,-4.03
2022-12-16T23:16:21.215Z,-3.98
2022-12-16T23:19:07.186Z,-3.92
2022-12-16T23:21:53.162Z,-3.97
2022-12-16T23:24:39.713Z,-4.13
2022-12-16T23:27:27.080Z,-4.16
2022-12-16T23:30:13.090Z,-4.24
2022-12-16T23:33:00.291Z,-4.21
2022-12-16T23:35:46.298Z,-4.22
2022-12-16T23:38:31.960Z,-4.22
2022-12-16T23:41:18.485Z,-4.24
2022-12-16T23:44:04.156Z,-4.20
2022-12-16T23:46:50.596Z,-4.29
2022-12-16T23:49:37.733Z,-4.30
2022-12-16T23:52:23.814Z,-4.39
2022-12-16T23:55:09.710Z,-4.37
2022-12-16T23:57:56.164Z,-4.51
